sensor_id;sensor_type;location;lat;lon;timestamp;P1;durP1;ratioP1;P2;durP2;ratioP2
20488;SDS011;10403;54.092;12.122;2022-08-19T00:00:06;24.42;;;20.33;;
20488;SDS011;10403;54.092;12.122;2022-08-19T00:02:37;27.35;;;22.00;;
20488;SDS011;10403;54.092;12.122;2022-08-19T00:05:16;27.95;;;22.50;;
20488;SDS011;10403;54.092;12.122;2022-08-19T00:07:45;30.30;;;22.75;;
20488;SDS011;10403;54.092;12.122;2022-08-19T00:10:13;29.42;;;23.67;;
20488;SDS011;10403;54.092;12.122;2022-08-19T00:12:43;29.08;;;24.08;;
20488;SDS011;10403;54.092;12.122;2022-08-19T00:15:13;29.15;;;22.77;;
20488;SDS011;10403;54.092;12.122;2022-08-19T00:17:44;29.05;;;24.33;;
20488;SDS011;10403;54.092;12.122;2022-08-19T00:20:13;28.80;;;22.67;;
20488;SDS011;10403;54.092;12.122;2022-08-19T00:22:46;34.70;;;24.25;;
20488;SDS011;10403;54.092;12.122;2022-08-19T00:25:14;32.33;;;24.88;;
20488;SDS011;10403;54.092;12.122;2022-08-19T00:27:43;30.33;;;24.60;;
20488;SDS011;10403;54.092;12.122;2022-08-19T00:30:10;30.30;;;23.20;;
20488;SDS011;10403;54.092;12.122;2022-08-19T00:32:38;27.83;;;23.40;;
20488;SDS011;10403;54.092;12.122;2022-08-19T00:35:07;33.85;;;24.85;;
20488;SDS011;10403;54.092;12.122;2022-08-19T00:37:36;32.92;;;22.98;;
20488;SDS011;10403;54.092;12.122;2022-08-19T00:40:05;29.00;;;23.65;;
20488;SDS011;10403;54.092;12.122;2022-08-19T00:42:34;28.40;;;23.13;;
20488;SDS011;10403;54.092;12.122;2022-08-19T00:45:01;25.63;;;22.17;;
20488;SDS011;10403;54.092;12.122;2022-08-19T00:47:36;26.83;;;22.10;;
20488;SDS011;10403;54.092;12.122;2022-08-19T00:50:03;27.98;;;22.40;;
20488;SDS011;10403;54.092;12.122;2022-08-19T00:52:36;29.98;;;23.67;;
20488;SDS011;10403;54.092;12.122;2022-08-19T00:55:22;29.58;;;23.48;;
20488;SDS011;10403;54.092;12.122;2022-08-19T00:57:59;33.50;;;23.33;;
20488;SDS011;10403;54.092;12.122;2022-08-19T01:00:34;29.50;;;22.80;;
20488;SDS011;10403;54.092;12.122;2022-08-19T01:03:07;29.25;;;23.67;;
20488;SDS011;10403;54.092;12.122;2022-08-19T01:05:45;30.13;;;23.60;;
20488;SDS011;10403;54.092;12.122;2022-08-19T01:08:15;28.63;;;23.33;;
20488;SDS011;10403;54.092;12.122;2022-08-19T01:10:46;29.33;;;22.95;;
20488;SDS011;10403;54.092;12.122;2022-08-19T01:13:27;30.20;;;23.38;;
20488;SDS011;10403;54.092;12.122;2022-08-19T01:16:16;28.92;;;22.30;;
20488;SDS011;10403;54.092;12.122;2022-08-19T01:18:47;31.50;;;24.48;;
20488;SDS011;10403;54.092;12.122;2022-08-19T01:21:21;29.50;;;23.90;;
20488;SDS011;10403;54.092;12.122;2022-08-19T01:23:57;33.15;;;26.33;;
20488;SDS011;10403;54.092;12.122;2022-08-19T01:26:26;36.35;;;26.40;;
20488;SDS011;10403;54.092;12.122;2022-08-19T01:28:57;34.03;;;25.58;;
20488;SDS011;10403;54.092;12.122;2022-08-19T01:31:28;34.83;;;27.38;;
20488;SDS011;10403;54.092;12.122;2022-08-19T01:33:58;36.88;;;25.35;;
20488;SDS011;10403;54.092;12.122;2022-08-19T01:36:32;32.97;;;26.75;;
20488;SDS011;10403;54.092;12.122;2022-08-19T01:39:10;32.35;;;24.52;;
20488;SDS011;10403;54.092;12.122;2022-08-19T01:41:42;32.97;;;26.77;;
20488;SDS011;10403;54.092;12.122;2022-08-19T01:44:09;34.55;;;25.73;;
20488;SDS011;10403;54.092;12.122;2022-08-19T01:46:44;32.00;;;25.02;;
20488;SDS011;10403;54.092;12.122;2022-08-19T01:49:14;34.58;;;27.15;;
20488;SDS011;10403;54.092;12.122;2022-08-19T01:51:44;33.33;;;25.90;;
20488;SDS011;10403;54.092;12.122;2022-08-19T01:54:12;32.95;;;26.25;;
20488;SDS011;10403;54.092;12.122;2022-08-19T01:56:52;38.65;;;28.10;;
20488;SDS011;10403;54.092;12.122;2022-08-19T01:59:27;34.35;;;26.70;;
20488;SDS011;10403;54.092;12.122;2022-08-19T02:01:55;35.90;;;28.38;;
20488;SDS011;10403;54.092;12.122;2022-08-19T02:04:22;36.17;;;28.08;;
20488;SDS011;10403;54.092;12.122;2022-08-19T02:06:51;36.75;;;28.17;;
20488;SDS011;10403;54.092;12.122;2022-08-19T02:09:18;36.63;;;28.95;;
20488;SDS011;10403;54.092;12.122;2022-08-19T02:11:45;36.28;;;27.75;;
20488;SDS011;10403;54.092;12.122;2022-08-19T02:14:13;34.72;;;27.88;;
20488;SDS011;10403;54.092;12.122;2022-08-19T02:16:40;34.22;;;28.15;;
20488;SDS011;10403;54.092;12.122;2022-08-19T02:19:07;40.55;;;30.48;;
20488;SDS011;10403;54.092;12.122;2022-08-19T02:21:34;35.85;;;28.52;;
20488;SDS011;10403;54.092;12.122;2022-08-19T02:24:01;38.42;;;27.60;;
20488;SDS011;10403;54.092;12.122;2022-08-19T02:26:29;38.45;;;28.48;;
20488;SDS011;10403;54.092;12.122;2022-08-19T02:28:56;36.53;;;27.15;;
20488;SDS011;10403;54.092;12.122;2022-08-19T02:31:25;35.83;;;27.00;;
20488;SDS011;10403;54.092;12.122;2022-08-19T02:33:55;37.53;;;25.88;;
20488;SDS011;10403;54.092;12.122;2022-08-19T02:36:24;35.42;;;26.60;;
20488;SDS011;10403;54.092;12.122;2022-08-19T02:38:52;31.65;;;24.85;;
20488;SDS011;10403;54.092;12.122;2022-08-19T02:41:25;33.05;;;25.77;;
20488;SDS011;10403;54.092;12.122;2022-08-19T02:43:57;33.17;;;24.02;;
20488;SDS011;10403;54.092;12.122;2022-08-19T02:46:47;30.73;;;24.35;;
20488;SDS011;10403;54.092;12.122;2022-08-19T02:49:18;34.15;;;23.75;;
20488;SDS011;10403;54.092;12.122;2022-08-19T02:51:46;34.35;;;23.25;;
20488;SDS011;10403;54.092;12.122;2022-08-19T02:54:14;42.83;;;23.30;;
20488;SDS011;10403;54.092;12.122;2022-08-19T02:56:42;36.35;;;23.45;;
20488;SDS011;10403;54.092;12.122;2022-08-19T02:59:10;33.35;;;23.90;;
20488;SDS011;10403;54.092;12.122;2022-08-19T03:01:39;36.33;;;25.90;;
20488;SDS011;10403;54.092;12.122;2022-08-19T03:04:09;38.63;;;25.73;;
20488;SDS011;10403;54.092;12.122;2022-08-19T03:06:44;35.25;;;25.52;;
20488;SDS011;10403;54.092;12.122;2022-08-19T03:09:13;35.08;;;24.63;;
20488;SDS011;10403;54.092;12.122;2022-08-19T03:11:41;34.22;;;26.20;;
20488;SDS011;10403;54.092;12.122;2022-08-19T03:14:08;43.08;;;27.95;;
20488;SDS011;10403;54.092;12.122;2022-08-19T03:16:44;39.92;;;26.30;;
20488;SDS011;10403;54.092;12.122;2022-08-19T03:19:18;40.25;;;26.52;;
20488;SDS011;10403;54.092;12.122;2022-08-19T03:21:47;34.28;;;26.63;;
20488;SDS011;10403;54.092;12.122;2022-08-19T03:24:16;38.08;;;26.55;;
20488;SDS011;10403;54.092;12.122;2022-08-19T03:26:46;41.05;;;29.05;;
20488;SDS011;10403;54.092;12.122;2022-08-19T03:29:18;42.75;;;28.60;;
20488;SDS011;10403;54.092;12.122;2022-08-19T03:32:00;41.22;;;27.55;;
20488;SDS011;10403;54.092;12.122;2022-08-19T03:34:31;46.05;;;27.35;;
20488;SDS011;10403;54.092;12.122;2022-08-19T03:37:03;44.67;;;27.73;;
20488;SDS011;10403;54.092;12.122;2022-08-19T03:39:35;41.88;;;25.77;;
20488;SDS011;10403;54.092;12.122;2022-08-19T03:42:04;43.28;;;27.30;;
20488;SDS011;10403;54.092;12.122;2022-08-19T03:44:52;42.88;;;27.48;;
20488;SDS011;10403;54.092;12.122;2022-08-19T03:47:19;40.92;;;25.85;;
20488;SDS011;10403;54.092;12.122;2022-08-19T03:49:46;41.45;;;27.52;;
20488;SDS011;10403;54.092;12.122;2022-08-19T03:52:13;44.63;;;25.90;;
20488;SDS011;10403;54.092;12.122;2022-08-19T03:54:40;45.22;;;28.13;;
20488;SDS011;10403;54.092;12.122;2022-08-19T03:57:07;43.83;;;28.70;;
20488;SDS011;10403;54.092;12.122;2022-08-19T03:59:35;43.03;;;28.83;;
20488;SDS011;10403;54.092;12.122;2022-08-19T04:02:06;45.78;;;28.83;;
20488;SDS011;10403;54.092;12.122;2022-08-19T04:04:38;43.08;;;28.27;;
20488;SDS011;10403;54.092;12.122;2022-08-19T04:07:08;48.22;;;29.85;;
20488;SDS011;10403;54.092;12.122;2022-08-19T04:09:36;51.85;;;29.85;;
20488;SDS011;10403;54.092;12.122;2022-08-19T04:12:04;53.20;;;29.75;;
20488;SDS011;10403;54.092;12.122;2022-08-19T04:14:32;49.42;;;29.98;;
20488;SDS011;10403;54.092;12.122;2022-08-19T04:17:01;52.30;;;29.55;;
20488;SDS011;10403;54.092;12.122;2022-08-19T04:19:31;60.03;;;32.85;;
20488;SDS011;10403;54.092;12.122;2022-08-19T04:22:02;55.45;;;31.38;;
20488;SDS011;10403;54.092;12.122;2022-08-19T04:24:30;55.13;;;33.55;;
20488;SDS011;10403;54.092;12.122;2022-08-19T04:26:59;51.65;;;31.63;;
20488;SDS011;10403;54.092;12.122;2022-08-19T04:29:28;52.03;;;30.45;;
20488;SDS011;10403;54.092;12.122;2022-08-19T04:31:56;54.88;;;30.95;;
20488;SDS011;10403;54.092;12.122;2022-08-19T04:34:25;56.03;;;32.30;;
20488;SDS011;10403;54.092;12.122;2022-08-19T04:36:56;62.10;;;33.75;;
20488;SDS011;10403;54.092;12.122;2022-08-19T04:39:26;62.95;;;32.13;;
20488;SDS011;10403;54.092;12.122;2022-08-19T04:42:16;56.95;;;32.58;;
20488;SDS011;10403;54.092;12.122;2022-08-19T04:45:03;62.50;;;35.30;;
20488;SDS011;10403;54.092;12.122;2022-08-19T04:47:36;61.55;;;34.80;;
20488;SDS011;10403;54.092;12.122;2022-08-19T04:50:17;64.13;;;35.08;;
20488;SDS011;10403;54.092;12.122;2022-08-19T04:52:45;57.30;;;34.90;;
20488;SDS011;10403;54.092;12.122;2022-08-19T04:55:12;65.30;;;35.15;;
20488;SDS011;10403;54.092;12.122;2022-08-19T04:57:40;58.83;;;33.38;;
20488;SDS011;10403;54.092;12.122;2022-08-19T05:00:08;65.72;;;35.75;;
20488;SDS011;10403;54.092;12.122;2022-08-19T05:02:37;67.53;;;35.75;;
20488;SDS011;10403;54.092;12.122;2022-08-19T05:05:05;62.53;;;35.22;;
20488;SDS011;10403;54.092;12.122;2022-08-19T05:07:33;68.03;;;36.45;;
20488;SDS011;10403;54.092;12.122;2022-08-19T05:10:01;60.80;;;35.20;;
20488;SDS011;10403;54.092;12.122;2022-08-19T05:12:31;70.07;;;37.90;;
20488;SDS011;10403;54.092;12.122;2022-08-19T05:14:58;76.78;;;37.22;;
20488;SDS011;10403;54.092;12.122;2022-08-19T05:17:27;66.82;;;37.10;;
20488;SDS011;10403;54.092;12.122;2022-08-19T05:20:02;71.82;;;35.85;;
20488;SDS011;10403;54.092;12.122;2022-08-19T05:22:50;64.72;;;36.08;;
20488;SDS011;10403;54.092;12.122;2022-08-19T05:25:19;58.13;;;33.58;;
20488;SDS011;10403;54.092;12.122;2022-08-19T05:27:48;66.97;;;35.30;;
20488;SDS011;10403;54.092;12.122;2022-08-19T05:30:15;70.63;;;37.00;;
20488;SDS011;10403;54.092;12.122;2022-08-19T05:32:43;71.82;;;35.13;;
20488;SDS011;10403;54.092;12.122;2022-08-19T05:35:11;67.00;;;34.60;;
20488;SDS011;10403;54.092;12.122;2022-08-19T05:37:38;60.33;;;35.35;;
20488;SDS011;10403;54.092;12.122;2022-08-19T05:40:07;64.03;;;35.13;;
20488;SDS011;10403;54.092;12.122;2022-08-19T05:42:36;59.47;;;33.45;;
20488;SDS011;10403;54.092;12.122;2022-08-19T05:45:04;56.63;;;33.83;;
20488;SDS011;10403;54.092;12.122;2022-08-19T05:47:33;63.63;;;34.17;;
20488;SDS011;10403;54.092;12.122;2022-08-19T05:50:08;64.60;;;34.10;;
20488;SDS011;10403;54.092;12.122;2022-08-19T05:52:36;61.97;;;32.50;;
20488;SDS011;10403;54.092;12.122;2022-08-19T05:55:09;64.93;;;34.72;;
20488;SDS011;10403;54.092;12.122;2022-08-19T05:57:36;65.05;;;34.85;;
20488;SDS011;10403;54.092;12.122;2022-08-19T06:00:04;62.42;;;34.70;;
20488;SDS011;10403;54.092;12.122;2022-08-19T06:02:37;61.00;;;34.55;;
20488;SDS011;10403;54.092;12.122;2022-08-19T06:05:07;58.40;;;33.78;;
20488;SDS011;10403;54.092;12.122;2022-08-19T06:07:35;67.38;;;35.85;;
20488;SDS011;10403;54.092;12.122;2022-08-19T06:10:05;64.43;;;33.80;;
20488;SDS011;10403;54.092;12.122;2022-08-19T06:12:36;58.08;;;35.00;;
20488;SDS011;10403;54.092;12.122;2022-08-19T06:15:07;58.75;;;35.40;;
20488;SDS011;10403;54.092;12.122;2022-08-19T06:17:38;59.63;;;34.30;;
20488;SDS011;10403;54.092;12.122;2022-08-19T06:20:06;56.75;;;32.85;;
20488;SDS011;10403;54.092;12.122;2022-08-19T06:22:43;60.92;;;33.80;;
20488;SDS011;10403;54.092;12.122;2022-08-19T06:25:16;58.88;;;33.58;;
20488;SDS011;10403;54.092;12.122;2022-08-19T06:27:43;59.38;;;34.00;;
20488;SDS011;10403;54.092;12.122;2022-08-19T06:30:31;58.58;;;32.78;;
20488;SDS011;10403;54.092;12.122;2022-08-19T06:32:58;64.53;;;34.58;;
20488;SDS011;10403;54.092;12.122;2022-08-19T06:35:25;59.47;;;34.78;;
20488;SDS011;10403;54.092;12.122;2022-08-19T06:37:53;59.80;;;33.50;;
20488;SDS011;10403;54.092;12.122;2022-08-19T06:40:20;62.65;;;36.22;;
20488;SDS011;10403;54.092;12.122;2022-08-19T06:42:48;57.58;;;33.92;;
20488;SDS011;10403;54.092;12.122;2022-08-19T06:45:21;61.40;;;34.80;;
20488;SDS011;10403;54.092;12.122;2022-08-19T06:47:51;58.22;;;34.08;;
20488;SDS011;10403;54.092;12.122;2022-08-19T06:50:20;60.20;;;35.13;;
20488;SDS011;10403;54.092;12.122;2022-08-19T06:52:50;58.45;;;33.40;;
20488;SDS011;10403;54.092;12.122;2022-08-19T06:55:18;57.78;;;31.35;;
20488;SDS011;10403;54.092;12.122;2022-08-19T06:57:45;97.57;;;35.75;;
20488;SDS011;10403;54.092;12.122;2022-08-19T07:00:14;59.85;;;33.80;;
20488;SDS011;10403;54.092;12.122;2022-08-19T07:02:42;62.47;;;34.75;;
20488;SDS011;10403;54.092;12.122;2022-08-19T07:05:22;59.08;;;33.67;;
20488;SDS011;10403;54.092;12.122;2022-08-19T07:07:49;71.25;;;36.55;;
20488;SDS011;10403;54.092;12.122;2022-08-19T07:10:17;66.93;;;35.30;;
20488;SDS011;10403;54.092;12.122;2022-08-19T07:12:45;64.80;;;36.25;;
20488;SDS011;10403;54.092;12.122;2022-08-19T07:15:13;64.20;;;35.67;;
20488;SDS011;10403;54.092;12.122;2022-08-19T07:17:44;63.30;;;33.65;;
20488;SDS011;10403;54.092;12.122;2022-08-19T07:20:14;71.22;;;35.47;;
20488;SDS011;10403;54.092;12.122;2022-08-19T07:22:43;70.82;;;34.70;;
20488;SDS011;10403;54.092;12.122;2022-08-19T07:25:11;61.25;;;34.65;;
20488;SDS011;10403;54.092;12.122;2022-08-19T07:27:39;64.20;;;35.72;;
20488;SDS011;10403;54.092;12.122;2022-08-19T07:30:11;63.75;;;35.67;;
20488;SDS011;10403;54.092;12.122;2022-08-19T07:32:40;59.90;;;34.13;;
20488;SDS011;10403;54.092;12.122;2022-08-19T07:35:09;58.78;;;32.05;;
20488;SDS011;10403;54.092;12.122;2022-08-19T07:37:36;61.17;;;33.42;;
20488;SDS011;10403;54.092;12.122;2022-08-19T07:40:06;62.90;;;33.65;;
20488;SDS011;10403;54.092;12.122;2022-08-19T07:42:34;63.55;;;33.60;;
20488;SDS011;10403;54.092;12.122;2022-08-19T07:45:02;60.72;;;33.25;;
20488;SDS011;10403;54.092;12.122;2022-08-19T07:47:31;68.65;;;34.30;;
20488;SDS011;10403;54.092;12.122;2022-08-19T07:50:16;65.32;;;34.67;;
20488;SDS011;10403;54.092;12.122;2022-08-19T07:52:47;66.45;;;34.75;;
20488;SDS011;10403;54.092;12.122;2022-08-19T07:55:18;63.13;;;33.80;;
20488;SDS011;10403;54.092;12.122;2022-08-19T07:58:09;60.70;;;31.25;;
20488;SDS011;10403;54.092;12.122;2022-08-19T08:00:40;64.78;;;32.67;;
20488;SDS011;10403;54.092;12.122;2022-08-19T08:03:08;62.80;;;31.50;;
20488;SDS011;10403;54.092;12.122;2022-08-19T08:05:36;61.88;;;32.10;;
20488;SDS011;10403;54.092;12.122;2022-08-19T08:08:21;62.70;;;32.55;;
20488;SDS011;10403;54.092;12.122;2022-08-19T08:11:10;51.35;;;28.38;;
20488;SDS011;10403;54.092;12.122;2022-08-19T08:13:41;56.15;;;30.23;;
20488;SDS011;10403;54.092;12.122;2022-08-19T08:16:08;53.25;;;30.85;;
20488;SDS011;10403;54.092;12.122;2022-08-19T08:18:40;62.95;;;31.10;;
20488;SDS011;10403;54.092;12.122;2022-08-19T08:21:15;51.38;;;29.33;;
20488;SDS011;10403;54.092;12.122;2022-08-19T08:23:42;57.63;;;32.97;;
20488;SDS011;10403;54.092;12.122;2022-08-19T08:26:10;53.40;;;31.60;;
20488;SDS011;10403;54.092;12.122;2022-08-19T08:28:38;52.25;;;30.70;;
20488;SDS011;10403;54.092;12.122;2022-08-19T08:31:06;53.97;;;31.77;;
20488;SDS011;10403;54.092;12.122;2022-08-19T08:33:35;50.13;;;30.73;;
20488;SDS011;10403;54.092;12.122;2022-08-19T08:36:05;58.83;;;32.83;;
20488;SDS011;10403;54.092;12.122;2022-08-19T08:38:33;50.53;;;31.20;;
20488;SDS011;10403;54.092;12.122;2022-08-19T08:44:14;51.88;;;29.88;;
20488;SDS011;10403;54.092;12.122;2022-08-19T08:47:09;48.78;;;30.83;;
20488;SDS011;10403;54.092;12.122;2022-08-19T08:49:49;53.30;;;32.13;;
20488;SDS011;10403;54.092;12.122;2022-08-19T08:52:34;50.47;;;32.22;;
20488;SDS011;10403;54.092;12.122;2022-08-19T08:55:18;55.22;;;32.33;;
20488;SDS011;10403;54.092;12.122;2022-08-19T08:57:55;52.28;;;31.15;;
20488;SDS011;10403;54.092;12.122;2022-08-19T09:00:47;55.97;;;32.72;;
20488;SDS011;10403;54.092;12.122;2022-08-19T09:03:17;48.15;;;31.08;;
20488;SDS011;10403;54.092;12.122;2022-08-19T09:06:05;57.15;;;32.20;;
20488;SDS011;10403;54.092;12.122;2022-08-19T09:09:05;53.17;;;32.90;;
20488;SDS011;10403;54.092;12.122;2022-08-19T09:14:58;50.75;;;32.72;;
20488;SDS011;10403;54.092;12.122;2022-08-19T09:17:31;50.63;;;32.13;;
20488;SDS011;10403;54.092;12.122;2022-08-19T09:20:04;49.05;;;31.05;;
20488;SDS011;10403;54.092;12.122;2022-08-19T09:22:51;50.08;;;31.20;;
20488;SDS011;10403;54.092;12.122;2022-08-19T09:25:19;45.58;;;30.75;;
20488;SDS011;10403;54.092;12.122;2022-08-19T09:27:53;45.83;;;30.55;;
20488;SDS011;10403;54.092;12.122;2022-08-19T09:30:32;50.88;;;30.55;;
20488;SDS011;10403;54.092;12.122;2022-08-19T09:33:06;48.08;;;29.98;;
20488;SDS011;10403;54.092;12.122;2022-08-19T09:35:34;41.55;;;28.10;;
20488;SDS011;10403;54.092;12.122;2022-08-19T09:38:19;44.83;;;28.83;;
20488;SDS011;10403;54.092;12.122;2022-08-19T09:40:47;42.85;;;25.50;;
20488;SDS011;10403;54.092;12.122;2022-08-19T09:43:16;44.95;;;25.80;;
20488;SDS011;10403;54.092;12.122;2022-08-19T09:45:59;44.83;;;27.65;;
20488;SDS011;10403;54.092;12.122;2022-08-19T09:48:29;43.00;;;28.20;;
20488;SDS011;10403;54.092;12.122;2022-08-19T09:51:01;41.95;;;26.75;;
20488;SDS011;10403;54.092;12.122;2022-08-19T09:53:37;39.80;;;27.17;;
20488;SDS011;10403;54.092;12.122;2022-08-19T09:56:05;45.28;;;28.52;;
20488;SDS011;10403;54.092;12.122;2022-08-19T09:58:34;42.35;;;27.42;;
20488;SDS011;10403;54.092;12.122;2022-08-19T10:01:04;43.10;;;27.67;;
20488;SDS011;10403;54.092;12.122;2022-08-19T10:03:34;45.55;;;27.58;;
20488;SDS011;10403;54.092;12.122;2022-08-19T10:06:07;40.90;;;26.65;;
20488;SDS011;10403;54.092;12.122;2022-08-19T10:08:42;37.80;;;25.88;;
20488;SDS011;10403;54.092;12.122;2022-08-19T10:11:15;39.55;;;26.00;;
20488;SDS011;10403;54.092;12.122;2022-08-19T10:14:00;39.13;;;26.85;;
20488;SDS011;10403;54.092;12.122;2022-08-19T10:16:29;37.15;;;26.65;;
20488;SDS011;10403;54.092;12.122;2022-08-19T10:19:05;41.03;;;27.70;;
20488;SDS011;10403;54.092;12.122;2022-08-19T10:21:32;40.38;;;27.35;;
20488;SDS011;10403;54.092;12.122;2022-08-19T10:24:01;41.97;;;26.95;;
20488;SDS011;10403;54.092;12.122;2022-08-19T10:26:33;42.22;;;28.00;;
20488;SDS011;10403;54.092;12.122;2022-08-19T10:29:04;37.30;;;25.27;;
20488;SDS011;10403;54.092;12.122;2022-08-19T10:31:34;39.15;;;27.15;;
20488;SDS011;10403;54.092;12.122;2022-08-19T10:34:21;44.05;;;27.58;;
20488;SDS011;10403;54.092;12.122;2022-08-19T10:36:53;40.15;;;27.10;;
20488;SDS011;10403;54.092;12.122;2022-08-19T10:39:27;38.15;;;26.45;;
20488;SDS011;10403;54.092;12.122;2022-08-19T10:42:07;41.30;;;27.52;;
20488;SDS011;10403;54.092;12.122;2022-08-19T10:44:39;38.45;;;26.75;;
20488;SDS011;10403;54.092;12.122;2022-08-19T10:47:07;42.40;;;27.50;;
20488;SDS011;10403;54.092;12.122;2022-08-19T10:49:51;37.25;;;25.48;;
20488;SDS011;10403;54.092;12.122;2022-08-19T10:52:45;39.13;;;27.45;;
20488;SDS011;10403;54.092;12.122;2022-08-19T10:55:17;34.83;;;24.77;;
20488;SDS011;10403;54.092;12.122;2022-08-19T10:58:11;39.28;;;25.38;;
20488;SDS011;10403;54.092;12.122;2022-08-19T11:00:53;38.67;;;26.80;;
20488;SDS011;10403;54.092;12.122;2022-08-19T11:03:23;38.33;;;25.58;;
20488;SDS011;10403;54.092;12.122;2022-08-19T11:05:58;37.47;;;26.40;;
20488;SDS011;10403;54.092;12.122;2022-08-19T11:08:34;40.33;;;27.48;;
20488;SDS011;10403;54.092;12.122;2022-08-19T11:11:05;40.38;;;27.08;;
20488;SDS011;10403;54.092;12.122;2022-08-19T11:13:34;37.25;;;26.45;;
20488;SDS011;10403;54.092;12.122;2022-08-19T11:16:06;36.97;;;25.80;;
20488;SDS011;10403;54.092;12.122;2022-08-19T11:18:42;39.70;;;27.17;;
20488;SDS011;10403;54.092;12.122;2022-08-19T11:21:20;38.90;;;26.23;;
20488;SDS011;10403;54.092;12.122;2022-08-19T11:23:52;33.58;;;25.63;;
20488;SDS011;10403;54.092;12.122;2022-08-19T11:26:23;32.22;;;24.10;;
20488;SDS011;10403;54.092;12.122;2022-08-19T11:28:51;33.63;;;23.08;;
20488;SDS011;10403;54.092;12.122;2022-08-19T11:31:21;33.72;;;23.35;;
20488;SDS011;10403;54.092;12.122;2022-08-19T11:33:58;34.22;;;23.35;;
20488;SDS011;10403;54.092;12.122;2022-08-19T11:36:30;37.10;;;24.95;;
20488;SDS011;10403;54.092;12.122;2022-08-19T11:39:04;35.33;;;23.33;;
20488;SDS011;10403;54.092;12.122;2022-08-19T11:41:34;36.33;;;24.98;;
20488;SDS011;10403;54.092;12.122;2022-08-19T11:44:02;36.80;;;25.10;;
20488;SDS011;10403;54.092;12.122;2022-08-19T11:46:30;34.67;;;23.30;;
20488;SDS011;10403;54.092;12.122;2022-08-19T11:48:58;32.53;;;22.98;;
20488;SDS011;10403;54.092;12.122;2022-08-19T11:51:27;34.25;;;23.35;;
20488;SDS011;10403;54.092;12.122;2022-08-19T11:53:55;39.88;;;22.77;;
20488;SDS011;10403;54.092;12.122;2022-08-19T11:56:24;35.97;;;24.92;;
20488;SDS011;10403;54.092;12.122;2022-08-19T11:58:53;38.13;;;25.13;;
20488;SDS011;10403;54.092;12.122;2022-08-19T12:01:26;32.80;;;23.42;;
20488;SDS011;10403;54.092;12.122;2022-08-19T12:03:54;34.95;;;24.38;;
20488;SDS011;10403;54.092;12.122;2022-08-19T12:06:29;36.80;;;23.40;;
20488;SDS011;10403;54.092;12.122;2022-08-19T12:09:02;32.90;;;24.45;;
20488;SDS011;10403;54.092;12.122;2022-08-19T12:11:32;35.25;;;25.27;;
20488;SDS011;10403;54.092;12.122;2022-08-19T12:14:00;36.88;;;24.70;;
20488;SDS011;10403;54.092;12.122;2022-08-19T12:16:28;34.60;;;24.08;;
20488;SDS011;10403;54.092;12.122;2022-08-19T12:18:58;43.33;;;25.42;;
20488;SDS011;10403;54.092;12.122;2022-08-19T12:21:30;34.95;;;25.23;;
20488;SDS011;10403;54.092;12.122;2022-08-19T12:24:02;33.20;;;24.48;;
20488;SDS011;10403;54.092;12.122;2022-08-19T12:26:31;33.85;;;24.17;;
20488;SDS011;10403;54.092;12.122;2022-08-19T12:29:04;38.40;;;24.63;;
20488;SDS011;10403;54.092;12.122;2022-08-19T12:31:31;35.28;;;26.08;;
20488;SDS011;10403;54.092;12.122;2022-08-19T12:33:58;35.25;;;24.00;;
20488;SDS011;10403;54.092;12.122;2022-08-19T12:36:26;37.85;;;24.70;;
20488;SDS011;10403;54.092;12.122;2022-08-19T12:38:53;33.78;;;22.95;;
20488;SDS011;10403;54.092;12.122;2022-08-19T12:41:20;33.35;;;23.33;;
20488;SDS011;10403;54.092;12.122;2022-08-19T12:43:48;33.70;;;23.17;;
20488;SDS011;10403;54.092;12.122;2022-08-19T12:46:17;31.27;;;22.30;;
20488;SDS011;10403;54.092;12.122;2022-08-19T12:48:51;28.83;;;21.73;;
20488;SDS011;10403;54.092;12.122;2022-08-19T12:51:21;31.08;;;23.48;;
20488;SDS011;10403;54.092;12.122;2022-08-19T12:53:48;33.47;;;23.77;;
20488;SDS011;10403;54.092;12.122;2022-08-19T12:56:16;29.80;;;21.55;;
20488;SDS011;10403;54.092;12.122;2022-08-19T12:58:48;30.58;;;22.45;;
20488;SDS011;10403;54.092;12.122;2022-08-19T13:01:18;32.20;;;23.23;;
20488;SDS011;10403;54.092;12.122;2022-08-19T13:03:48;29.13;;;22.58;;
20488;SDS011;10403;54.092;12.122;2022-08-19T13:06:19;30.25;;;23.15;;
20488;SDS011;10403;54.092;12.122;2022-08-19T13:08:47;31.95;;;23.60;;
20488;SDS011;10403;54.092;12.122;2022-08-19T13:11:15;34.35;;;23.42;;
20488;SDS011;10403;54.092;12.122;2022-08-19T13:13:47;35.88;;;24.88;;
20488;SDS011;10403;54.092;12.122;2022-08-19T13:16:17;31.80;;;23.65;;
20488;SDS011;10403;54.092;12.122;2022-08-19T13:18:46;28.73;;;22.80;;
20488;SDS011;10403;54.092;12.122;2022-08-19T13:21:15;29.40;;;22.40;;
20488;SDS011;10403;54.092;12.122;2022-08-19T13:23:46;34.15;;;23.17;;
20488;SDS011;10403;54.092;12.122;2022-08-19T13:26:14;25.35;;;19.70;;
20488;SDS011;10403;54.092;12.122;2022-08-19T13:28:42;27.15;;;21.52;;
20488;SDS011;10403;54.092;12.122;2022-08-19T13:31:31;27.20;;;20.08;;
20488;SDS011;10403;54.092;12.122;2022-08-19T13:34:25;25.13;;;18.85;;
20488;SDS011;10403;54.092;12.122;2022-08-19T13:37:00;23.27;;;18.75;;
20488;SDS011;10403;54.092;12.122;2022-08-19T13:39:32;23.75;;;19.38;;
20488;SDS011;10403;54.092;12.122;2022-08-19T13:42:01;25.77;;;19.23;;
20488;SDS011;10403;54.092;12.122;2022-08-19T13:44:31;26.73;;;20.45;;
20488;SDS011;10403;54.092;12.122;2022-08-19T13:47:02;27.65;;;20.02;;
20488;SDS011;10403;54.092;12.122;2022-08-19T13:49:34;24.52;;;19.85;;
20488;SDS011;10403;54.092;12.122;2022-08-19T13:52:03;26.50;;;20.17;;
20488;SDS011;10403;54.092;12.122;2022-08-19T13:54:31;24.67;;;19.85;;
20488;SDS011;10403;54.092;12.122;2022-08-19T13:56:59;27.52;;;22.02;;
20488;SDS011;10403;54.092;12.122;2022-08-19T13:59:26;26.40;;;20.63;;
20488;SDS011;10403;54.092;12.122;2022-08-19T14:01:57;27.00;;;20.33;;
20488;SDS011;10403;54.092;12.122;2022-08-19T14:04:26;28.05;;;20.55;;
20488;SDS011;10403;54.092;12.122;2022-08-19T14:06:53;28.52;;;20.73;;
20488;SDS011;10403;54.092;12.122;2022-08-19T14:09:21;24.98;;;19.73;;
20488;SDS011;10403;54.092;12.122;2022-08-19T14:11:48;29.45;;;20.23;;
20488;SDS011;10403;54.092;12.122;2022-08-19T14:14:17;28.00;;;21.05;;
20488;SDS011;10403;54.092;12.122;2022-08-19T14:16:44;25.95;;;21.50;;
20488;SDS011;10403;54.092;12.122;2022-08-19T14:19:10;29.17;;;20.67;;
20488;SDS011;10403;54.092;12.122;2022-08-19T14:21:38;27.70;;;20.33;;
20488;SDS011;10403;54.092;12.122;2022-08-19T14:24:07;26.85;;;20.77;;
20488;SDS011;10403;54.092;12.122;2022-08-19T14:26:35;26.77;;;20.20;;
20488;SDS011;10403;54.092;12.122;2022-08-19T14:29:02;27.30;;;19.70;;
20488;SDS011;10403;54.092;12.122;2022-08-19T14:31:30;29.63;;;20.27;;
20488;SDS011;10403;54.092;12.122;2022-08-19T14:33:57;27.27;;;20.17;;
20488;SDS011;10403;54.092;12.122;2022-08-19T14:36:24;32.58;;;21.40;;
20488;SDS011;10403;54.092;12.122;2022-08-19T14:38:51;26.92;;;20.55;;